Time;durP1;ratioP1;P1;durP2;ratioP2;P2;SDS_P1;SDS_P2;PMS_P1;PMS_P2;Temp;Humidity;BMP_temperature;BMP_pressure;BME280_temperature;BME280_humidity;BME280_pressure;Samples;Min_cycle;Max_cycle;Signal;HPM_P1;HPM_P2
2022/10/01 00:00:47;;;;;;;2.73;2.53;;;;;;;22.94;55.42;97226.72;5029341;28;20198;-31
2022/10/01 00:03:14;;;;;;;2.80;2.60;;;;;;;22.96;55.31;97225.06;5032649;28;20226;-31
2022/10/01 00:05:40;;;;;;;3.00;2.70;;;;;;;22.93;55.53;97221.56;5033147;28;20601;-31
2022/10/01 00:08:07;;;;;;;2.50;2.30;;;;;;;22.95;55.47;97237.84;5027059;28;20197;-31
2022/10/01 00:10:35;;;;;;;2.80;2.60;;;;;;;22.96;55.50;97239.56;5048297;28;20200;-31
2022/10/01 00:13:02;;;;;;;3.00;2.80;;;;;;;22.95;55.50;97243.81;5037398;28;20217;-31
2022/10/01 00:15:28;;;;;;;2.20;2.10;;;;;;;22.96;55.37;97244.69;5040025;28;20527;-31
2022/10/01 00:17:55;;;;;;;2.83;2.63;;;;;;;22.96;55.43;97244.69;5033077;28;20212;-31
2022/10/01 00:20:21;;;;;;;2.63;2.43;;;;;;;22.96;55.58;97239.56;5031142;28;20194;-31
2022/10/01 00:22:48;;;;;;;2.50;2.30;;;;;;;22.95;55.42;97235.28;5033659;28;20244;-31
2022/10/01 00:25:15;;;;;;;2.50;2.30;;;;;;;22.92;55.54;97228.38;5034311;28;20194;-31
2022/10/01 00:27:44;;;;;;;2.63;2.43;;;;;;;22.95;55.56;97236.13;5034378;28;20204;-31
2022/10/01 00:30:11;;;;;;;2.40;2.23;;;;;;;22.95;55.51;97240.41;5034691;28;20611;-31
2022/10/01 00:32:39;;;;;;;2.60;2.40;;;;;;;22.95;55.59;97242.97;5033253;28;20225;-31
2022/10/01 00:35:08;;;;;;;2.93;2.67;;;;;;;22.95;55.49;97238.69;5043732;28;20596;-31
2022/10/01 00:37:36;;;;;;;2.70;2.50;;;;;;;22.96;55.51;97242.13;5038861;28;20201;-31
2022/10/01 00:40:04;;;;;;;2.40;2.20;;;;;;;22.96;55.49;97239.56;5034656;28;20202;-31
2022/10/01 00:42:30;;;;;;;2.57;2.37;;;;;;;22.91;55.48;97223.22;5032353;28;20217;-31
2022/10/01 00:45:01;;;;;;;2.70;2.50;;;;;;;22.96;55.47;97227.63;5032733;28;20205;-31
2022/10/01 00:47:36;;;;;;;2.60;2.40;;;;;;;22.95;55.43;97228.44;5034173;28;20285;-31
2022/10/01 00:50:06;;;;;;;2.80;2.60;;;;;;;22.95;55.36;97225.88;5033993;28;20197;-31
2022/10/01 00:52:33;;;;;;;2.70;2.50;;;;;;;22.88;55.52;97210.34;5032117;28;20228;-31
2022/10/01 00:55:04;;;;;;;2.70;2.50;;;;;;;22.95;55.50;97223.31;5032091;28;20406;-31
2022/10/01 00:57:30;;;;;;;2.73;2.53;;;;;;;22.92;55.53;97223.25;5032086;28;20554;-31
2022/10/01 00:59:58;;;;;;;3.00;2.80;;;;;;;22.87;55.42;97213.75;5030781;28;20198;-31
2022/10/01 01:02:25;;;;;;;2.60;2.40;;;;;;;22.95;55.44;97225.03;5011169;28;20220;-31
2022/10/01 01:04:52;;;;;;;2.93;2.67;;;;;;;22.96;55.50;97226.75;5033057;28;20285;-31
2022/10/01 01:07:18;;;;;;;2.83;2.63;;;;;;;22.95;55.54;97228.44;5033123;28;20198;-31
2022/10/01 01:09:46;;;;;;;2.80;2.60;;;;;;;22.92;55.44;97219.84;5031958;28;20208;-31
2022/10/01 01:12:46;;;;;;;2.80;2.60;;;;;;;22.95;55.50;97219.91;5031521;28;20576;-31
2022/10/01 01:15:21;;;;;;;2.80;2.60;;;;;;;22.95;55.30;97219.91;5031020;28;20225;-31
2022/10/01 01:17:50;;;;;;;2.83;2.63;;;;;;;22.94;55.42;97220.72;5033753;28;20562;-31
2022/10/01 01:20:23;;;;;;;2.50;2.30;;;;;;;22.94;55.43;97216.47;5041621;28;20201;-31
2022/10/01 01:23:02;;;;;;;2.77;2.57;;;;;;;22.94;55.38;97219.03;5032818;28;20233;-31
2022/10/01 01:25:46;;;;;;;2.50;2.30;;;;;;;22.95;55.47;97222.47;5031570;28;20594;-31
2022/10/01 01:28:21;;;;;;;2.50;2.30;;;;;;;22.95;55.43;97219.91;5011026;28;20297;-31
2022/10/01 01:30:48;;;;;;;3.30;3.00;;;;;;;22.83;55.53;97192.31;5031916;28;20292;-31
2022/10/01 01:33:19;;;;;;;2.90;2.70;;;;;;;22.94;55.44;97220.72;5027182;28;20217;-31
2022/10/01 01:35:52;;;;;;;2.77;2.57;;;;;;;22.94;55.44;97218.16;5024008;28;20728;-31
2022/10/01 01:38:20;;;;;;;2.90;2.70;;;;;;;22.94;55.83;97220.72;5012685;28;20206;-31
2022/10/01 01:40:50;;;;;;;2.90;2.70;;;;;;;22.91;55.25;97213.84;5024985;28;20657;-31
2022/10/01 01:43:19;;;;;;;2.80;2.60;;;;;;;22.95;55.53;97217.34;5031452;28;20217;-31
2022/10/01 01:45:47;;;;;;;2.50;2.30;;;;;;;22.92;55.49;97218.13;5025300;28;20281;-31
2022/10/01 01:48:13;;;;;;;2.80;2.60;;;;;;;22.92;55.65;97209.59;5031760;28;20194;-31
2022/10/01 01:50:54;;;;;;;2.80;2.60;;;;;;;22.94;55.59;97213.91;5031549;28;20208;-31
2022/10/01 01:53:20;;;;;;;2.83;2.63;;;;;;;22.95;55.44;97210.50;5011691;28;20225;-31
2022/10/01 01:55:48;;;;;;;2.70;2.50;;;;;;;22.95;55.66;97204.53;5032241;28;20218;-31
2022/10/01 01:58:18;;;;;;;2.73;2.53;;;;;;;22.95;55.74;97204.53;5040008;28;20205;-31
2022/10/01 02:00:46;;;;;;;2.90;2.70;;;;;;;22.94;55.55;97195.09;5027951;28;20225;-31
2022/10/01 02:03:13;;;;;;;3.07;2.87;;;;;;;22.94;55.45;97193.41;5021938;28;20231;-31
2022/10/01 02:05:42;;;;;;;3.00;2.80;;;;;;;22.94;55.42;97193.41;5034401;28;20194;-31
2022/10/01 02:08:15;;;;;;;2.70;2.50;;;;;;;22.92;55.36;97181.41;5024754;28;20204;-31
2022/10/01 02:10:47;;;;;;;2.93;2.73;;;;;;;22.39;55.42;97100.09;5031456;28;20208;-31
2022/10/01 02:13:37;;;;;;;3.03;2.83;;;;;;;22.94;55.39;97184.84;5031862;28;20221;-31
2022/10/01 02:16:17;;;;;;;3.00;2.77;;;;;;;22.94;55.28;97182.28;5030394;28;20778;-31
2022/10/01 02:19:17;;;;;;;2.80;2.60;;;;;;;22.94;55.55;97198.53;5031246;28;20197;-31
2022/10/01 02:21:48;;;;;;;2.73;2.53;;;;;;;22.94;55.43;97192.53;5028990;28;20200;-31
2022/10/01 02:24:36;;;;;;;2.90;2.70;;;;;;;22.91;55.46;97189.91;5032428;28;20226;-31
2022/10/01 02:27:07;;;;;;;2.63;2.43;;;;;;;22.93;55.38;97203.63;5023349;28;20193;-31
2022/10/01 02:29:34;;;;;;;2.70;2.50;;;;;;;22.93;55.42;97207.06;5030847;28;20565;-31
2022/10/01 02:32:00;;;;;;;2.60;2.40;;;;;;;22.92;55.44;97202.75;5030442;28;20235;-31
2022/10/01 02:34:28;;;;;;;2.50;2.30;;;;;;;22.87;55.50;97196.69;5031007;28;20264;-31
2022/10/01 02:36:54;;;;;;;2.63;2.43;;;;;;;22.92;55.44;97195.06;5009311;28;20225;-31
2022/10/01 02:39:21;;;;;;;2.80;2.60;;;;;;;22.92;55.35;97200.19;5030614;28;20573;-31
2022/10/01 02:41:48;;;;;;;2.53;2.33;;;;;;;22.90;55.34;97193.31;5031526;28;20216;-31
2022/10/01 02:44:17;;;;;;;2.67;2.47;;;;;;;22.89;55.37;97194.16;5039724;28;20224;-31
2022/10/01 02:46:56;;;;;;;2.40;2.20;;;;;;;22.92;55.36;97192.50;5030058;28;20204;-31
2022/10/01 02:49:23;;;;;;;2.63;2.43;;;;;;;22.93;55.15;97188.25;5032117;28;20205;-31
2022/10/01 02:52:33;;;;;;;2.80;2.60;;;;;;;22.92;55.37;97183.97;5029256;28;20580;-31
2022/10/01 02:55:04;;;;;;;2.20;2.10;;;;;;;22.83;55.37;97163.31;5031221;28;20253;-31
2022/10/01 02:57:31;;;;;;;2.60;2.40;;;;;;;22.92;55.00;97171.16;5011370;28;20222;-31
2022/10/01 03:00:00;;;;;;;2.70;2.50;;;;;;;22.93;55.37;97178.00;5031399;28;20201;-31
2022/10/01 03:02:27;;;;;;;2.67;2.47;;;;;;;22.92;55.40;97182.25;5031062;28;20448;-31
2022/10/01 03:04:55;;;;;;;2.37;2.20;;;;;;;22.92;55.28;97177.13;5031078;28;20197;-31
2022/10/01 03:07:23;;;;;;;2.40;2.20;;;;;;;22.92;55.45;97179.69;5031467;28;20574;-31
2022/10/01 03:09:49;;;;;;;2.50;2.30;;;;;;;22.92;55.38;97179.69;5031208;28;20227;-31
2022/10/01 03:12:17;;;;;;;3.00;2.80;;;;;;;22.92;55.36;97179.69;5030834;28;20194;-31
2022/10/01 03:14:44;;;;;;;2.60;2.40;;;;;;;22.90;55.30;97171.13;5031406;28;20202;-31
2022/10/01 03:17:11;;;;;;;2.77;2.57;;;;;;;22.92;55.24;97169.44;5031281;28;20217;-31
2022/10/01 03:19:38;;;;;;;2.97;2.77;;;;;;;22.88;55.41;97169.34;5031308;28;20256;-31
2022/10/01 03:22:04;;;;;;;2.60;2.40;;;;;;;22.93;55.22;97180.56;5031600;28;20197;-31
2022/10/01 03:24:31;;;;;;;2.80;2.60;;;;;;;22.93;55.08;97166.06;5031245;28;20213;-31
2022/10/01 03:26:57;;;;;;;2.30;2.10;;;;;;;22.93;55.44;97167.75;5036670;28;20198;-31
2022/10/01 03:29:24;;;;;;;2.70;2.50;;;;;;;22.93;55.34;97168.63;5031402;28;20198;-31
2022/10/01 03:31:51;;;;;;;2.73;2.53;;;;;;;22.35;55.32;97067.59;5031057;28;20681;-31
2022/10/01 03:34:18;;;;;;;2.50;2.30;;;;;;;22.94;55.25;97164.34;5030882;28;20696;-31
2022/10/01 03:36:44;;;;;;;2.80;2.60;;;;;;;22.92;54.89;97161.75;5029588;28;20592;-31
2022/10/01 03:39:11;;;;;;;2.80;2.60;;;;;;;22.93;55.26;97165.19;5033941;28;20198;-31
2022/10/01 03:41:37;;;;;;;2.60;2.40;;;;;;;22.92;55.13;97155.78;5035519;28;20209;-31
2022/10/01 03:44:04;;;;;;;2.63;2.43;;;;;;;22.90;55.34;97145.50;5035886;28;20228;-31
2022/10/01 03:46:30;;;;;;;2.70;2.50;;;;;;;22.93;54.42;97157.50;5034874;28;20198;-31
2022/10/01 03:48:58;;;;;;;2.80;2.60;;;;;;;22.93;55.28;97152.38;5036469;28;20256;-31
2022/10/01 03:51:24;;;;;;;2.90;2.70;;;;;;;22.93;55.19;97150.69;5033693;28;20289;-31
2022/10/01 03:53:51;;;;;;;2.57;2.37;;;;;;;22.93;55.34;97157.50;5038613;28;20224;-31
2022/10/01 03:56:17;;;;;;;2.60;2.40;;;;;;;22.93;55.22;97157.50;5033904;28;20312;-31
2022/10/01 03:58:44;;;;;;;2.60;2.40;;;;;;;22.92;55.37;97150.66;5035168;28;20213;-31
2022/10/01 04:01:10;;;;;;;2.50;2.30;;;;;;;22.93;55.43;97155.81;5043844;28;20677;-31
2022/10/01 04:03:37;;;;;;;2.60;2.40;;;;;;;22.92;55.39;97141.25;5034495;28;20604;-31
2022/10/01 04:06:04;;;;;;;2.60;2.40;;;;;;;22.90;55.34;97144.63;5034107;28;20196;-31
2022/10/01 04:08:31;;;;;;;2.73;2.53;;;;;;;22.90;55.29;97142.06;5034663;28;20201;-31
2022/10/01 04:10:59;;;;;;;2.57;2.37;;;;;;;22.91;55.41;97148.91;5034185;28;20210;-31
2022/10/01 04:13:26;;;;;;;2.70;2.50;;;;;;;22.93;55.20;97155.81;5033793;28;20225;-31
2022/10/01 04:15:53;;;;;;;2.47;2.30;;;;;;;22.94;55.29;97154.09;5032712;28;20491;-31
2022/10/01 04:18:20;;;;;;;2.60;2.40;;;;;;;22.94;55.35;97154.09;5034288;28;20236;-31
2022/10/01 04:20:47;;;;;;;2.83;2.63;;;;;;;22.93;55.31;97153.25;5034079;28;20593;-31
2022/10/01 04:23:13;;;;;;;2.80;2.60;;;;;;;22.94;55.49;97152.41;5034450;28;20711;-31
2022/10/01 04:25:40;;;;;;;2.30;2.20;;;;;;;22.94;55.10;97147.28;5033473;28;20209;-31
2022/10/01 04:28:08;;;;;;;2.40;2.30;;;;;;;22.94;55.38;97143.84;5029301;28;20197;-31
2022/10/01 04:30:37;;;;;;;2.57;2.37;;;;;;;22.94;55.33;97141.28;5032876;28;20664;-31
2022/10/01 04:33:04;;;;;;;2.47;2.27;;;;;;;22.93;55.46;97143.00;5036882;28;20216;-31
2022/10/01 04:35:30;;;;;;;2.40;2.20;;;;;;;22.93;55.44;97137.88;5037916;28;20212;-31
2022/10/01 04:38:02;;;;;;;2.80;2.60;;;;;;;22.94;55.33;97138.72;5033970;28;20233;-31
2022/10/01 04:40:29;;;;;;;2.77;2.57;;;;;;;22.94;55.28;97136.16;5034056;28;20660;-31
2022/10/01 04:42:56;;;;;;;2.70;2.50;;;;;;;22.93;55.50;97137.88;5035813;28;20648;-31
2022/10/01 04:45:22;;;;;;;2.60;2.40;;;;;;;22.93;55.34;97131.88;5040919;28;20206;-31
2022/10/01 04:47:49;;;;;;;2.83;2.63;;;;;;;22.94;55.31;97141.28;5033600;28;20201;-31
2022/10/01 04:50:17;;;;;;;2.53;2.33;;;;;;;22.91;55.40;97134.41;5033748;28;20676;-31
2022/10/01 04:52:43;;;;;;;2.80;2.60;;;;;;;22.94;55.35;97131.03;5032081;28;20221;-31
2022/10/01 04:55:10;;;;;;;2.80;2.60;;;;;;;22.93;55.43;97135.31;5032417;28;20201;-31
2022/10/01 04:57:37;;;;;;;2.90;2.70;;;;;;;22.93;55.44;97137.88;5033386;28;20225;-31
2022/10/01 05:00:09;;;;;;;2.80;2.60;;;;;;;22.93;55.45;97137.00;5033678;28;20198;-31
2022/10/01 05:02:36;;;;;;;2.70;2.50;;;;;;;22.94;55.31;97143.84;5031754;28;20225;-31
2022/10/01 05:05:04;;;;;;;2.23;2.13;;;;;;;22.92;55.32;97141.25;5033568;28;20728;-31
2022/10/01 05:07:31;;;;;;;2.70;2.50;;;;;;;22.90;55.39;97131.81;5033670;28;20202;-31
2022/10/01 05:09:57;;;;;;;2.20;2.10;;;;;;;22.93;55.38;97139.56;5033403;28;20202;-31
2022/10/01 05:12:24;;;;;;;2.70;2.50;;;;;;;22.93;55.38;97145.56;5032556;28;20664;-31
2022/10/01 05:14:51;;;;;;;2.60;2.40;;;;;;;22.91;55.34;97141.22;5033244;28;20209;-31
2022/10/01 05:17:18;;;;;;;2.60;2.40;;;;;;;22.91;55.45;97138.66;5031625;28;20222;-31
2022/10/01 05:19:45;;;;;;;3.23;2.70;;;;;;;22.93;55.42;97137.00;5033038;28;20220;-31
2022/10/01 05:22:12;;;;;;;2.73;2.53;;;;;;;22.93;55.51;97129.31;5036231;28;20216;-31
2022/10/01 05:24:39;;;;;;;2.23;2.13;;;;;;;22.90;55.39;97126.69;5032711;28;20304;-31
2022/10/01 05:27:12;;;;;;;2.30;2.20;;;;;;;22.91;55.36;97125.84;5032729;28;20198;-31
2022/10/01 05:29:40;;;;;;;2.63;2.43;;;;;;;22.93;55.52;97132.75;5039572;28;20689;-31
2022/10/01 05:32:07;;;;;;;2.60;2.40;;;;;;;22.94;55.42;97138.72;5028692;28;20202;-31
2022/10/01 05:34:34;;;;;;;2.53;2.33;;;;;;;22.93;55.53;97143.00;5032579;28;20693;-31
2022/10/01 05:37:01;;;;;;;2.60;2.40;;;;;;;22.90;55.41;97139.50;5043100;28;20264;-31
2022/10/01 05:39:28;;;;;;;2.60;2.40;;;;;;;22.93;55.30;97153.25;5032753;28;20611;-31
2022/10/01 05:41:56;;;;;;;2.63;2.43;;;;;;;22.94;55.43;97152.41;5032854;28;20448;-31
2022/10/01 05:44:23;;;;;;;2.50;2.30;;;;;;;22.91;55.23;97149.78;5031224;28;20221;-31
2022/10/01 05:46:49;;;;;;;2.70;2.50;;;;;;;22.94;55.38;97151.53;5032700;28;20194;-31
2022/10/01 05:49:16;;;;;;;2.60;2.40;;;;;;;22.94;55.47;97149.84;5032447;28;20225;-31
2022/10/01 05:51:43;;;;;;;2.33;2.23;;;;;;;22.94;55.39;97148.97;5031874;28;20193;-31
2022/10/01 05:54:10;;;;;;;2.50;2.30;;;;;;;22.94;55.36;97151.53;5034843;28;20227;-31
2022/10/01 05:56:36;;;;;;;2.20;2.10;;;;;;;22.94;55.33;97151.53;5032540;28;20217;-31
2022/10/01 05:59:03;;;;;;;2.53;2.37;;;;;;;22.93;55.29;97153.25;5032731;28;20212;-31
2022/10/01 06:01:31;;;;;;;2.20;2.10;;;;;;;22.94;55.41;97154.97;5031844;28;20205;-31
2022/10/01 06:03:58;;;;;;;2.40;2.30;;;;;;;22.94;55.36;97154.97;5032525;28;20279;-31
2022/10/01 06:06:25;;;;;;;2.60;2.40;;;;;;;22.89;55.33;97140.34;5031906;28;20553;-31
2022/10/01 06:08:51;;;;;;;2.33;2.23;;;;;;;22.94;55.37;97152.41;5032417;28;20205;-31
2022/10/01 06:11:20;;;;;;;2.50;2.30;;;;;;;22.92;55.33;97154.06;5035775;28;20198;-31
2022/10/01 06:13:47;;;;;;;2.53;2.33;;;;;;;22.94;55.29;97157.53;5032032;28;20255;-31
2022/10/01 06:16:13;;;;;;;2.20;2.10;;;;;;;22.95;55.25;97153.28;5031654;28;20201;-31
2022/10/01 06:18:40;;;;;;;2.20;2.10;;;;;;;22.92;55.43;97148.94;5032248;28;20295;-31
2022/10/01 06:21:07;;;;;;;2.43;2.27;;;;;;;22.95;55.27;97148.16;5029513;28;20558;-31
2022/10/01 06:23:34;;;;;;;2.00;1.90;;;;;;;22.95;55.34;97153.28;5034252;28;20609;-31
2022/10/01 06:26:01;;;;;;;2.40;2.20;;;;;;;22.91;55.32;97147.22;5032154;28;20938;-31
2022/10/01 06:28:28;;;;;;;2.43;2.23;;;;;;;22.95;55.26;97150.72;5031526;28;20205;-31
2022/10/01 06:30:54;;;;;;;2.63;2.43;;;;;;;22.95;55.30;97148.16;5030624;28;20206;-31
2022/10/01 06:33:21;;;;;;;2.50;2.30;;;;;;;22.95;55.11;97150.72;5032120;28;20225;-31
2022/10/01 06:35:49;;;;;;;2.60;2.40;;;;;;;22.95;55.30;97153.28;5031975;28;20197;-31
2022/10/01 06:38:17;;;;;;;2.20;2.10;;;;;;;22.95;55.33;97151.56;5032016;28;20692;-31
2022/10/01 06:40:43;;;;;;;2.10;2.00;;;;;;;22.95;55.33;97151.56;5045713;28;20354;-31
2022/10/01 06:43:09;;;;;;;2.30;2.20;;;;;;;22.92;55.11;97146.38;5031802;28;20213;-31
2022/10/01 06:45:39;;;;;;;2.07;1.97;;;;;;;22.95;55.29;97150.72;5037946;28;20205;-31
2022/10/01 06:48:06;;;;;;;2.17;2.07;;;;;;;22.92;55.25;97145.53;5044099;28;20201;-31
2022/10/01 06:50:33;;;;;;;2.10;2.00;;;;;;;22.95;55.22;97150.72;5031497;28;20198;-31
2022/10/01 06:53:00;;;;;;;2.23;2.13;;;;;;;22.95;55.26;97155.84;5031499;28;20324;-31
2022/10/01 06:55:30;;;;;;;2.23;2.13;;;;;;;22.95;55.20;97153.28;5031666;28;20193;-31
2022/10/01 06:58:03;;;;;;;2.50;2.30;;;;;;;22.96;55.17;97152.44;5031331;28;20225;-31
2022/10/01 07:00:31;;;;;;;2.10;2.00;;;;;;;22.95;55.18;97151.56;5031839;28;20743;-31
2022/10/01 07:02:58;;;;;;;2.40;2.20;;;;;;;22.95;55.24;97138.75;5031466;28;20225;-31
2022/10/01 07:05:25;;;;;;;2.10;2.00;;;;;;;22.96;55.35;97137.03;5031846;28;20197;-31
2022/10/01 07:07:52;;;;;;;2.57;2.37;;;;;;;22.95;55.17;97136.16;5031643;28;20198;-31
2022/10/01 07:10:19;;;;;;;2.00;1.90;;;;;;;22.94;55.22;97133.59;5031877;28;20201;-31
2022/10/01 07:12:49;;;;;;;2.10;2.00;;;;;;;22.95;55.20;97128.47;5031410;28;20247;-31
2022/10/01 07:15:21;;;;;;;2.20;2.10;;;;;;;22.90;55.22;97127.56;5035757;28;20220;-31
2022/10/01 07:17:48;;;;;;;2.30;2.10;;;;;;;22.94;55.26;97129.34;5035477;28;20224;-31
2022/10/01 07:20:19;;;;;;;2.00;1.90;;;;;;;22.95;55.28;97125.09;5028951;28;20201;-31
2022/10/01 07:22:46;;;;;;;2.00;1.90;;;;;;;22.95;55.20;97131.06;5035045;28;20243;-31
2022/10/01 07:25:13;;;;;;;2.60;2.03;;;;;;;22.93;55.40;97129.31;5035828;28;20201;-31
2022/10/01 07:27:39;;;;;;;2.30;2.20;;;;;;;22.95;55.29;97133.63;5035823;28;20200;-31
2022/10/01 07:30:06;;;;;;;2.40;2.20;;;;;;;22.95;55.32;97143.88;5041995;28;20205;-31
2022/10/01 07:32:34;;;;;;;2.17;2.07;;;;;;;22.95;55.25;97137.91;5035184;28;20225;-31
2022/10/01 07:35:00;;;;;;;2.10;2.00;;;;;;;22.95;55.25;97143.88;5035150;28;20589;-31
2022/10/01 07:37:27;;;;;;;2.10;2.00;;;;;;;22.96;55.27;97137.03;5034911;28;20220;-31
2022/10/01 07:39:53;;;;;;;2.20;2.10;;;;;;;22.95;55.32;97133.63;5045461;28;20302;-31
2022/10/01 07:42:20;;;;;;;2.10;2.00;;;;;;;22.95;55.24;97128.47;5039363;28;20320;-31
2022/10/01 07:44:47;;;;;;;2.40;2.30;;;;;;;22.96;55.50;97129.34;5035538;28;20210;-31
2022/10/01 07:47:14;;;;;;;2.13;2.03;;;;;;;22.89;55.16;97118.13;5046919;28;20205;-31
2022/10/01 07:49:41;;;;;;;2.10;2.00;;;;;;;22.96;55.26;97121.66;5035137;28;20252;-31
2022/10/01 07:52:08;;;;;;;2.50;2.30;;;;;;;22.94;54.98;97118.22;5029029;28;20197;-31
2022/10/01 07:54:38;;;;;;;2.50;2.30;;;;;;;22.89;55.23;97102.75;5035356;28;20620;-31
2022/10/01 07:57:05;;;;;;;2.10;2.00;;;;;;;22.95;55.16;97115.66;5034933;28;20233;-31
2022/10/01 07:59:32;;;;;;;2.20;2.10;;;;;;;22.92;55.15;97105.38;5034949;28;20555;-31
2022/10/01 08:01:59;;;;;;;2.27;2.17;;;;;;;22.86;55.20;97096.75;5035216;28;20213;-31
2022/10/01 08:07:11;;;;;;;2.37;2.20;;;;;;;22.95;55.24;97102.03;5035167;28;20576;-31
2022/10/01 08:09:39;;;;;;;2.43;2.23;;;;;;;22.94;55.20;97093.47;5033291;28;20205;-31
2022/10/01 08:12:08;;;;;;;2.50;2.30;;;;;;;22.94;55.28;97093.47;5035081;28;20201;-31
2022/10/01 08:14:34;;;;;;;2.00;1.90;;;;;;;22.95;55.19;97094.34;5033230;28;20692;-31
2022/10/01 08:17:01;;;;;;;2.43;2.23;;;;;;;22.96;55.11;97090.91;5034673;28;20398;-31
2022/10/01 08:19:28;;;;;;;1.97;1.87;;;;;;;22.92;55.07;97084.88;5034913;28;20201;-31
2022/10/01 08:21:54;;;;;;;2.10;2.00;;;;;;;22.95;55.26;97086.66;5034441;28;20202;-31
2022/10/01 08:24:21;;;;;;;2.40;2.20;;;;;;;22.94;55.27;97072.97;5034044;28;20229;-31
2022/10/01 08:26:52;;;;;;;2.40;2.20;;;;;;;22.95;55.19;97084.91;5033560;28;20209;-31
2022/10/01 08:29:19;;;;;;;2.50;2.40;;;;;;;22.92;55.13;97073.78;5034579;28;20201;-31
2022/10/01 08:31:45;;;;;;;2.40;2.20;;;;;;;22.95;55.13;97086.66;5034572;28;20235;-31
2022/10/01 08:34:12;;;;;;;2.10;2.00;;;;;;;22.93;55.27;97068.69;5034086;28;20774;-31
2022/10/01 08:36:40;;;;;;;2.50;2.30;;;;;;;22.93;55.23;97065.25;5033992;28;20205;-31
2022/10/01 08:39:06;;;;;;;2.13;2.03;;;;;;;22.89;55.25;97059.19;5039911;28;20474;-31
2022/10/01 08:41:52;;;;;;;2.00;1.90;;;;;;;22.93;55.29;97071.25;5044000;28;20209;-31
2022/10/01 08:44:20;;;;;;;2.07;1.97;;;;;;;22.86;55.25;97064.25;5034154;28;20213;-31
2022/10/01 08:46:47;;;;;;;1.93;1.83;;;;;;;22.94;55.26;97087.47;5031469;28;20216;-31
2022/10/01 08:49:22;;;;;;;2.00;1.90;;;;;;;22.30;55.16;96969.34;5036174;28;20210;-31
2022/10/01 08:52:02;;;;;;;2.20;2.00;;;;;;;22.94;55.29;97083.22;5026332;28;20198;-31
2022/10/01 08:55:09;;;;;;;2.20;2.10;;;;;;;22.94;55.29;97090.91;5032948;28;20229;-31
2022/10/01 08:57:38;;;;;;;2.00;1.90;;;;;;;22.91;55.30;97087.41;5029596;28;20381;-31
2022/10/01 09:00:09;;;;;;;2.30;2.10;;;;;;;22.94;55.26;97092.59;5027888;28;20692;-31
2022/10/01 09:02:39;;;;;;;2.03;1.93;;;;;;;22.87;55.39;97075.38;5024008;28;20224;-31
2022/10/01 09:05:15;;;;;;;2.33;2.17;;;;;;;22.94;55.34;97092.59;5028500;28;20592;-31
2022/10/01 09:08:04;;;;;;;2.00;1.90;;;;;;;22.83;55.15;97071.91;5032721;28;20255;-31
2022/10/01 09:10:48;;;;;;;2.00;1.90;;;;;;;22.94;55.28;97095.16;5037466;28;20198;-31
2022/10/01 09:13:23;;;;;;;2.23;2.13;;;;;;;22.93;55.35;97094.31;5015878;28;20246;-31
2022/10/01 09:16:02;;;;;;;1.97;1.87;;;;;;;22.93;55.35;97096.88;5041325;28;20200;-31
2022/10/01 09:18:44;;;;;;;2.00;1.90;;;;;;;22.91;55.47;97092.53;5034363;28;20282;-31
2022/10/01 09:21:22;;;;;;;2.30;2.20;;;;;;;22.92;55.23;97104.53;5033977;28;20572;-31
2022/10/01 09:24:02;;;;;;;2.00;1.90;;;;;;;22.93;55.43;97098.56;5030221;28;20590;-31
2022/10/01 09:26:29;;;;;;;2.03;1.93;;;;;;;22.90;55.43;97090.81;5033094;28;20610;-31
2022/10/01 09:28:58;;;;;;;2.00;1.90;;;;;;;22.92;55.36;97095.13;5033854;28;20201;-31
2022/10/01 09:31:27;;;;;;;1.90;1.80;;;;;;;22.91;55.29;97089.97;5026029;28;20205;-31
2022/10/01 09:34:01;;;;;;;2.07;1.97;;;;;;;22.83;55.16;97073.63;5024385;28;20227;-31
2022/10/01 09:36:46;;;;;;;2.20;2.10;;;;;;;22.90;55.41;97094.25;5031629;28;20205;-31
2022/10/01 09:39:30;;;;;;;1.93;1.83;;;;;;;22.93;55.42;97096.88;5020982;28;20225;-31
2022/10/01 09:41:57;;;;;;;1.90;1.80;;;;;;;22.93;55.34;97096.88;5032568;28;20197;-31
2022/10/01 09:44:27;;;;;;;1.80;1.70;;;;;;;22.92;55.45;97100.25;5032225;28;20213;-31
2022/10/01 09:46:54;;;;;;;1.80;1.70;;;;;;;22.93;55.29;97102.00;5033988;28;20202;-31
2022/10/01 09:49:50;;;;;;;1.90;1.80;;;;;;;22.93;55.31;97098.56;5035538;28;20200;-31
2022/10/01 09:52:35;;;;;;;1.90;1.80;;;;;;;22.92;55.46;97105.38;5023760;28;20576;-31
2022/10/01 09:55:18;;;;;;;1.83;1.73;;;;;;;22.91;55.40;97098.53;5031330;28;20208;-31
2022/10/01 09:58:07;;;;;;;2.17;2.00;;;;;;;22.92;55.36;97092.56;5024056;28;20727;-31
2022/10/01 10:00:34;;;;;;;2.00;1.90;;;;;;;22.93;55.43;97098.56;5031816;28;20205;-31
2022/10/01 10:03:01;;;;;;;2.00;1.90;;;;;;;22.86;55.08;97079.66;5023107;28;20251;-31
2022/10/01 10:05:28;;;;;;;1.73;1.63;;;;;;;22.88;55.41;97087.34;5031702;28;20197;-31
2022/10/01 10:08:22;;;;;;;1.90;1.80;;;;;;;22.93;55.34;97102.00;5032357;28;20205;-31
2022/10/01 10:10:57;;;;;;;2.00;1.90;;;;;;;22.93;55.21;97109.69;5030884;28;20201;-31
2022/10/01 10:13:33;;;;;;;2.00;1.90;;;;;;;22.90;55.27;97101.06;5031024;28;20292;-31
2022/10/01 10:16:25;;;;;;;2.00;1.90;;;;;;;22.87;55.34;97099.31;5031432;28;20208;-31
2022/10/01 10:18:59;;;;;;;2.00;1.90;;;;;;;22.89;55.31;97096.78;5029999;28;20447;-30
2022/10/01 10:21:28;;;;;;;2.00;1.80;;;;;;;22.92;55.24;97113.06;5026864;28;20204;-31
2022/10/01 10:23:57;;;;;;;1.80;1.70;;;;;;;22.91;55.32;97111.34;5032887;28;20232;-31
2022/10/01 10:26:33;;;;;;;2.33;1.77;;;;;;;22.92;55.38;97107.94;5030912;28;20743;-32
2022/10/01 10:29:01;;;;;;;1.90;1.80;;;;;;;22.91;55.48;97108.78;5033044;28;20254;-31
2022/10/01 10:31:40;;;;;;;2.07;1.97;;;;;;;22.91;55.62;97101.09;5033059;28;20201;-31
2022/10/01 10:34:13;;;;;;;2.10;2.00;;;;;;;22.92;55.41;97104.53;5032897;28;20312;-31
2022/10/01 10:36:40;;;;;;;1.87;1.77;;;;;;;22.91;55.49;97095.09;5020695;28;20205;-31
2022/10/01 10:39:19;;;;;;;1.90;1.80;;;;;;;22.87;55.36;97081.38;5034450;28;20790;-31
2022/10/01 10:41:45;;;;;;;1.80;1.70;;;;;;;22.90;55.50;97083.13;5020134;28;20642;-31
2022/10/01 10:44:12;;;;;;;2.00;1.90;;;;;;;22.91;55.38;97088.28;5031404;28;20225;-31
2022/10/01 10:46:39;;;;;;;1.90;1.80;;;;;;;22.92;55.38;97078.91;5028761;28;20208;-31
2022/10/01 10:49:20;;;;;;;1.80;1.70;;;;;;;22.87;55.38;97067.72;5027156;28;20194;-31
2022/10/01 10:51:52;;;;;;;2.00;1.80;;;;;;;22.91;55.36;97075.47;5030401;28;20208;-31
2022/10/01 10:54:28;;;;;;;1.63;1.53;;;;;;;22.92;55.38;97089.16;5032553;28;20217;-31
2022/10/01 10:57:01;;;;;;;1.80;1.70;;;;;;;22.91;55.40;97083.16;5037650;28;20205;-31
2022/10/01 10:59:30;;;;;;;1.77;1.67;;;;;;;22.91;55.31;97082.28;5040307;28;20802;-31
2022/10/01 11:01:58;;;;;;;1.77;1.67;;;;;;;22.86;55.38;97071.94;5031370;28;20213;-31
2022/10/01 11:04:40;;;;;;;1.77;1.67;;;;;;;22.91;55.36;97079.72;5011699;28;20512;-31
2022/10/01 11:07:06;;;;;;;1.70;1.60;;;;;;;22.91;55.02;97072.91;5038853;28;20198;-31
2022/10/01 11:09:43;;;;;;;1.93;1.83;;;;;;;22.91;55.16;97079.72;5032338;28;20193;-31
2022/10/01 11:12:28;;;;;;;1.80;1.70;;;;;;;22.91;55.35;97080.59;5030699;28;20579;-31
2022/10/01 11:15:09;;;;;;;1.87;1.77;;;;;;;22.91;55.43;97083.16;5032854;28;20224;-31
2022/10/01 11:18:08;;;;;;;1.70;1.60;;;;;;;22.92;55.46;97078.91;5040863;28;20204;-31
2022/10/01 11:20:48;;;;;;;1.80;1.70;;;;;;;22.92;55.40;97071.22;5030808;28;20202;-31
2022/10/01 11:23:26;;;;;;;1.80;1.70;;;;;;;22.92;55.52;97071.22;5031599;28;20225;-31
2022/10/01 11:26:20;;;;;;;1.77;1.67;;;;;;;22.92;55.38;97074.63;5031136;28;20209;-31
2022/10/01 11:29:13;;;;;;;1.80;1.70;;;;;;;22.83;55.36;97048.00;5032387;28;20209;-31
2022/10/01 11:31:46;;;;;;;1.80;1.70;;;;;;;22.91;55.37;97067.78;5019650;28;20205;-31
2022/10/01 11:34:12;;;;;;;1.70;1.60;;;;;;;22.91;55.49;97062.66;5030785;28;20827;-31
2022/10/01 11:36:49;;;;;;;1.60;1.50;;;;;;;22.91;55.21;97062.66;5031777;28;20201;-31
2022/10/01 11:39:20;;;;;;;1.73;1.63;;;;;;;22.53;55.50;96986.84;5020633;28;20219;-31
2022/10/01 11:42:02;;;;;;;1.90;1.80;;;;;;;22.92;55.52;97053.28;5025327;28;20214;-31
2022/10/01 11:44:45;;;;;;;2.03;1.83;;;;;;;22.92;55.35;97048.16;5031492;28;20723;-31
2022/10/01 11:47:19;;;;;;;1.80;1.70;;;;;;;22.91;55.48;97041.28;5024663;28;20198;-31
2022/10/01 11:50:04;;;;;;;1.60;1.50;;;;;;;22.91;55.60;97036.16;5030510;28;20688;-31
2022/10/01 11:52:40;;;;;;;2.00;1.90;;;;;;;22.88;55.57;97024.16;5029694;28;20225;-31